Chopin — ZDFE4 — position and weather

sailwx.info

Track history (hours):
 
Tides and Currents Weather Stations Pressure Air Temp Water Temp Dewpoint Dewpoint Depression Visibility Wind Speed Wind Dir Waves Ship Positions

Chopin

Last reported at 2014-Sep-02 01:33 UTC. Time now 2014-Sep-02 02:09 UTC.
Position N 54°35' E 012°14'.

Length 104 m; draft 6.5 m.

Type: Cargo ship. MMSI: 236099000.

Date/timePositionNaut miles runAvg speedWind from/ knotsBaromVisibWave heightAir tempDewpointWater temp
2014-Sep-02 01:33N 54°35' E 012°14'9 9.2
2014-Sep-02 00:33N 54°41' E 012°25'9 9.2
2014-Sep-01 23:33N 54°47' E 012°38'3 2.2
2014-Sep-01 22:09N 54°48' E 012°42'1 1.3
2014-Sep-01 21:33N 54°48' E 012°44'9 8.3
2014-Sep-01 20:29N 54°51' E 012°58'11 8.9
2014-Sep-01 19:13N 54°55' E 013°16'6 9.3
2014-Sep-01 18:33N 54°57' E 013°26'8 8.4
2014-Sep-01 17:33N 54°60' E 013°40'9 8.9
2014-Sep-01 16:33N 55°03' E 013°55'8 8.1
2014-Sep-01 15:33N 55°07' E 014°06'8 8.5
2014-Sep-01 14:33N 55°14' E 014°16'9 8.7
2014-Sep-01 13:33N 55°20' E 014°26'9 8.8
2014-Sep-01 12:33N 55°27' E 014°36'9 8.8
2014-Sep-01 11:33N 55°31' E 014°50'9 8.7
2014-Sep-01 10:31N 55°36' E 015°04'37 8.9
2014-Sep-01 06:23N 55°54' E 016°00'7 8.6
2014-Sep-01 05:33N 55°58' E 016°11'9 8.6
2014-Sep-01 04:33N 56°02' E 016°25'9 8.5
2014-Sep-01 03:33N 56°07' E 016°38'69 8.5
2014-Aug-31 19:29N 56°49' E 018°17'10 9.0
2014-Aug-31 18:24N 56°55' E 018°30'223 8.9
2014-Aug-30 17:16N 59°38' E 023°20'6 8.9
2014-Aug-30 16:33N 59°39' E 023°32'9 9.2
2014-Aug-30 15:33N 59°42' E 023°49'9 8.6
2014-Aug-30 14:33N 59°45' E 024°05'9 8.8
2014-Aug-30 13:33N 59°47' E 024°22'73 8.8
2014-Aug-30 05:15N 60°01' E 026°46'7 9.3
2014-Aug-30 04:31N 59°60' E 026°59'  
2014-Aug-26 03:15N 59°53' E 030°13'94 1.8
2014-Aug-23 23:15N 59°58' E 027°05'6 9.2
2014-Aug-23 22:34N 59°58' E 026°52'10 9.6
2014-Aug-23 21:31N 59°58' E 026°32'  
Track history (hours):
 
Tides and Currents Weather Stations Pressure Air Temp Water Temp Dewpoint Dewpoint Depression Visibility Wind Speed Wind Dir Waves Ship Positions

Chopin

Last reported at 2014-Sep-02 01:33 UTC. Time now 2014-Sep-02 02:09 UTC.
Position N 54°35' E 012°14'.

Length 104 m; draft 6.5 m.

Type: Cargo ship. MMSI: 236099000.

Date/timePositionNaut miles runAvg speedWind from/ knotsBaromVisibWave heightAir tempDewpointWater temp
2014-Sep-02 01:33N 54°35' E 012°14'9 9.2
2014-Sep-02 00:33N 54°41' E 012°25'9 9.2
2014-Sep-01 23:33N 54°47' E 012°38'3 2.2
2014-Sep-01 22:09N 54°48' E 012°42'1 1.3
2014-Sep-01 21:33N 54°48' E 012°44'9 8.3
2014-Sep-01 20:29N 54°51' E 012°58'11 8.9
2014-Sep-01 19:13N 54°55' E 013°16'6 9.3
2014-Sep-01 18:33N 54°57' E 013°26'8 8.4
2014-Sep-01 17:33N 54°60' E 013°40'9 8.9
2014-Sep-01 16:33N 55°03' E 013°55'8 8.1
2014-Sep-01 15:33N 55°07' E 014°06'8 8.5
2014-Sep-01 14:33N 55°14' E 014°16'9 8.7
2014-Sep-01 13:33N 55°20' E 014°26'9 8.8
2014-Sep-01 12:33N 55°27' E 014°36'9 8.8
2014-Sep-01 11:33N 55°31' E 014°50'9 8.7
2014-Sep-01 10:31N 55°36' E 015°04'37 8.9
2014-Sep-01 06:23N 55°54' E 016°00'7 8.6
2014-Sep-01 05:33N 55°58' E 016°11'9 8.6
2014-Sep-01 04:33N 56°02' E 016°25'9 8.5
2014-Sep-01 03:33N 56°07' E 016°38'69 8.5
2014-Aug-31 19:29N 56°49' E 018°17'10 9.0
2014-Aug-31 18:24N 56°55' E 018°30'223 8.9
2014-Aug-30 17:16N 59°38' E 023°20'6 8.9
2014-Aug-30 16:33N 59°39' E 023°32'9 9.2
2014-Aug-30 15:33N 59°42' E 023°49'9 8.6
2014-Aug-30 14:33N 59°45' E 024°05'9 8.8
2014-Aug-30 13:33N 59°47' E 024°22'73 8.8
2014-Aug-30 05:15N 60°01' E 026°46'7 9.3
2014-Aug-30 04:31N 59°60' E 026°59'  
2014-Aug-26 03:15N 59°53' E 030°13'94 1.8
2014-Aug-23 23:15N 59°58' E 027°05'6 9.2
2014-Aug-23 22:34N 59°58' E 026°52'10 9.6
2014-Aug-23 21:31N 59°58' E 026°32'  

Dump ship's entire track history